Time;durP1;ratioP1;P1;durP2;ratioP2;P2;SDS_P1;SDS_P2;PMS_P1;PMS_P2;Temp;Humidity;BMP_temperature;BMP_pressure;BME280_temperature;BME280_humidity;BME280_pressure;Samples;Min_cycle;Max_cycle;Signal;HPM_P1;HPM_P2
2023/07/16 00:01:40;;;;;;;;;;;;;;;15.27;100.00;100805.06;5036005;28;19913;-74
2023/07/16 00:04:05;;;;;;;;;;;;;;;15.29;100.00;100813.75;5035809;28;19917;-74
2023/07/16 00:06:30;;;;;;;;;;;;;;;15.33;100.00;100803.53;5036308;28;19917;-74
2023/07/16 00:08:55;;;;;;;;;;;;;;;15.36;100.00;100805.03;5035627;28;19927;-73
2023/07/16 00:11:20;;;;;;;;;;;;;;;15.32;100.00;100809.91;5035731;28;20011;-74
2023/07/16 00:13:47;;;;;;;;;;;;;;;15.30;100.00;100818.13;5035746;28;19917;-74
2023/07/16 00:16:13;;;;;;;;;;;;;;;15.32;100.00;100805.38;5035537;28;20392;-74
2023/07/16 00:18:38;;;;;;;;;;;;;;;15.32;100.00;100808.06;5035265;28;19913;-75
2023/07/16 00:21:03;;;;;;;;;;;;;;;15.33;100.00;100806.19;5035466;28;19975;-74
2023/07/16 00:23:29;;;;;;;;;;;;;;;15.31;100.00;100814.41;5035537;28;20082;-74
2023/07/16 00:25:54;;;;;;;;;;;;;;;15.32;100.00;100816.09;5035489;28;19921;-74
2023/07/16 00:28:19;;;;;;;;;;;;;;;15.32;100.00;100801.88;5035516;28;19924;-75
2023/07/16 00:30:44;;;;;;;;;;;;;;;15.34;100.00;100815.91;5035445;28;19925;-74
2023/07/16 00:33:10;;;;;;;;;;;;;;;15.29;100.00;100819.13;5035622;28;20324;-75
2023/07/16 00:35:35;;;;;;;;;;;;;;;15.30;100.00;100810.09;5017638;28;19917;-74
2023/07/16 00:38:00;;;;;;;;;;;;;;;15.34;100.00;100811.38;5035279;28;19913;-73
2023/07/16 00:40:25;;;;;;;;;;;;;;;15.34;100.00;100800.66;5035188;28;19928;-73
2023/07/16 00:42:51;;;;;;;;;;;;;;;15.32;100.00;100808.06;5035421;28;19917;-74
2023/07/16 00:45:16;;;;;;;;;;;;;;;15.39;100.00;100808.22;5035369;28;20323;-73
2023/07/16 00:47:42;;;;;;;;;;;;;;;15.45;100.00;100818.25;5035022;28;20083;-74
2023/07/16 00:50:08;;;;;;;;;;;;;;;15.52;100.00;100818.38;5034847;28;19913;-73
2023/07/16 00:52:33;;;;;;;;;;;;;;;15.54;100.00;100813.72;5035022;28;19912;-73
2023/07/16 00:54:59;;;;;;;;;;;;;;;15.58;100.00;100822.22;5035085;28;20329;-73
2023/07/16 00:57:24;;;;;;;;;;;;;;;15.59;100.00;100821.22;5035176;28;20379;-73
2023/07/16 00:59:49;;;;;;;;;;;;;;;15.59;100.00;100819.38;5034858;28;19958;-73
2023/07/16 01:02:15;;;;;;;;;;;;;;;15.56;100.00;100825.09;5017008;28;20367;-73
2023/07/16 01:04:40;;;;;;;;;;;;;;;15.59;100.00;100822.06;5034792;28;19987;-74
2023/07/16 01:07:07;;;;;;;;;;;;;;;15.58;100.00;100824.91;5034677;28;19917;-75
2023/07/16 01:09:33;;;;;;;;;;;;;;;15.58;100.00;100830.28;5034455;28;19924;-74
2023/07/16 01:12:00;;;;;;;;;;;;;;;15.56;100.00;100824.25;5034665;28;19921;-72
2023/07/16 01:14:25;;;;;;;;;;;;;;;15.49;100.00;100822.25;5034463;28;19920;-73
2023/07/16 01:16:53;;;;;;;;;;;;;;;15.43;100.00;100822.94;5034445;28;20316;-73
2023/07/16 01:19:18;;;;;;;;;;;;;;;15.40;100.00;100822.44;5034255;28;19972;-73
2023/07/16 01:21:51;;;;;;;;;;;;;;;15.39;100.00;100827.00;5034199;28;19917;-74
2023/07/16 01:24:35;;;;;;;;;;;;;;;15.35;100.00;100817.59;5034392;28;19913;-73
2023/07/16 01:27:09;;;;;;;;;;;;;;;15.37;100.00;100817.44;5033717;28;20264;-73
2023/07/16 01:29:51;;;;;;;;;;;;;;;15.38;100.00;100825.31;5034336;28;19921;-74
2023/07/16 01:32:16;;;;;;;;;;;;;;;15.37;100.00;100828.16;5033975;28;19919;-73
2023/07/16 01:34:43;;;;;;;;;;;;;;;15.34;100.00;100821.28;5034613;28;19933;-73
2023/07/16 01:37:08;;;;;;;;;;;;;;;15.34;100.00;100824.78;5033822;28;19920;-73
2023/07/16 01:39:33;;;;;;;;;;;;;;;15.34;100.00;100821.28;5033822;28;20397;-74
2023/07/16 01:41:59;;;;;;;;;;;;;;;15.33;100.00;100822.28;5034135;28;19913;-73
2023/07/16 01:44:24;;;;;;;;;;;;;;;15.30;100.00;100825.31;5016132;28;19917;-73
2023/07/16 01:46:59;;;;;;;;;;;;;;;15.25;100.00;100816.94;5034068;28;20395;-74
2023/07/16 01:49:24;;;;;;;;;;;;;;;15.24;100.00;100815.28;5033733;28;20002;-73
2023/07/16 01:51:49;;;;;;;;;;;;;;;15.26;100.00;100815.97;5034222;28;20304;-73
2023/07/16 01:54:14;;;;;;;;;;;;;;;15.31;100.00;100825.13;5033573;28;20293;-72
2023/07/16 01:56:40;;;;;;;;;;;;;;;15.31;100.00;100822.44;5033857;28;20297;-72
2023/07/16 01:59:05;;;;;;;;;;;;;;;15.33;100.00;100817.78;5033874;28;20285;-72
2023/07/16 02:01:30;;;;;;;;;;;;;;;15.39;100.00;100823.44;5034177;28;20269;-74
2023/07/16 02:03:55;;;;;;;;;;;;;;;15.46;100.00;100821.75;5032706;28;20296;-73
2023/07/16 02:06:20;;;;;;;;;;;;;;;15.51;100.00;100819.41;5033430;28;20250;-73
2023/07/16 02:08:46;;;;;;;;;;;;;;;15.51;100.00;100814.88;5033365;28;19921;-73
2023/07/16 02:11:12;;;;;;;;;;;;;;;15.53;100.00;100825.44;5016830;28;19952;-72
2023/07/16 02:13:37;;;;;;;;;;;;;;;15.51;100.00;100814.06;5033531;28;20317;-73
2023/07/16 02:16:03;;;;;;;;;;;;;;;15.49;100.00;100824.09;5033387;28;20250;-74
2023/07/16 02:18:28;;;;;;;;;;;;;;;15.50;100.00;100815.06;5033285;28;19963;-72
2023/07/16 02:20:53;;;;;;;;;;;;;;;15.51;100.00;100819.41;5033520;28;19924;-73
2023/07/16 02:23:18;;;;;;;;;;;;;;;15.55;100.00;100810.00;5033402;28;19917;-72
2023/07/16 02:25:43;;;;;;;;;;;;;;;15.50;100.00;100810.53;5015665;28;20011;-73
2023/07/16 02:28:09;;;;;;;;;;;;;;;15.46;100.00;100817.22;5033380;28;19975;-72
2023/07/16 02:30:34;;;;;;;;;;;;;;;15.43;100.00;100817.56;5033359;28;19928;-73
2023/07/16 02:32:59;;;;;;;;;;;;;;;15.47;100.00;100834.16;5033355;28;19917;-74
2023/07/16 02:35:24;;;;;;;;;;;;;;;15.49;100.00;100821.41;5033277;28;19917;-73
2023/07/16 02:37:50;;;;;;;;;;;;;;;15.50;100.00;100823.94;5033279;28;19962;-73
2023/07/16 02:40:15;;;;;;;;;;;;;;;15.57;100.00;100828.59;5033266;28;19944;-72
2023/07/16 02:42:40;;;;;;;;;;;;;;;15.65;100.00;100820.53;5034001;28;19925;-72
2023/07/16 02:45:06;;;;;;;;;;;;;;;15.71;100.00;100827.06;5033434;28;20320;-73
2023/07/16 02:47:31;;;;;;;;;;;;;;;15.74;100.00;100819.50;5033075;28;20254;-73
2023/07/16 02:49:56;;;;;;;;;;;;;;;15.74;100.00;100824.84;5033264;28;20365;-73
2023/07/16 02:52:21;;;;;;;;;;;;;;;15.77;100.00;100829.88;5015598;28;20282;-73
2023/07/16 02:54:47;;;;;;;;;;;;;;;15.76;100.00;100844.28;5034529;28;19959;-72
2023/07/16 02:57:12;;;;;;;;;;;;;;;15.76;100.00;100820.16;5033543;28;19963;-72
2023/07/16 02:59:37;;;;;;;;;;;;;;;15.75;100.00;100829.22;5033422;28;19960;-72
2023/07/16 03:02:03;;;;;;;;;;;;;;;15.70;100.00;100818.16;5015368;28;19924;-72
2023/07/16 03:04:28;;;;;;;;;;;;;;;15.67;100.00;100837.28;5032717;28;19924;-73
2023/07/16 03:06:53;;;;;;;;;;;;;;;15.62;100.00;100834.28;5033044;28;19986;-73
2023/07/16 03:09:18;;;;;;;;;;;;;;;15.58;100.00;100832.97;5033185;28;20016;-72
2023/07/16 03:11:44;;;;;;;;;;;;;;;15.53;100.00;100852.25;5033355;28;19979;-73
2023/07/16 03:14:09;;;;;;;;;;;;;;;15.50;100.00;100856.09;5033158;28;19917;-72
2023/07/16 03:16:34;;;;;;;;;;;;;;;15.54;100.00;100855.75;5036902;28;19917;-72
2023/07/16 03:18:59;;;;;;;;;;;;;;;15.57;100.00;100855.41;5036758;28;19917;-73
2023/07/16 03:21:25;;;;;;;;;;;;;;;15.64;100.00;100861.78;5036597;28;19917;-73
2023/07/16 03:23:50;;;;;;;;;;;;;;;15.66;100.00;100857.09;5036959;28;19917;-73
2023/07/16 03:26:15;;;;;;;;;;;;;;;15.67;100.00;100859.59;5036130;28;19917;-72
2023/07/16 03:28:40;;;;;;;;;;;;;;;15.68;100.00;100865.78;5036242;28;19917;-74
2023/07/16 03:31:05;;;;;;;;;;;;;;;15.60;100.00;100879.19;5036220;28;20003;-74
2023/07/16 03:33:31;;;;;;;;;;;;;;;15.50;100.00;100869.50;5036523;28;19955;-73
2023/07/16 03:35:56;;;;;;;;;;;;;;;15.35;100.00;100876.59;5036489;28;19963;-73
2023/07/16 03:38:21;;;;;;;;;;;;;;;15.29;100.00;100869.22;5036198;28;19917;-74
2023/07/16 03:40:48;;;;;;;;;;;;;;;15.22;100.00;100877.09;5036213;28;19946;-75
2023/07/16 03:43:13;;;;;;;;;;;;;;;15.20;100.00;100870.22;5018380;28;19940;-74
2023/07/16 03:45:38;;;;;;;;;;;;;;;15.22;100.00;100873.56;5036110;28;20289;-74
2023/07/16 03:48:04;;;;;;;;;;;;;;;15.24;100.00;100885.81;5036106;28;19921;-74
2023/07/16 03:50:29;;;;;;;;;;;;;;;15.27;100.00;100889.97;5035994;28;19917;-74
2023/07/16 03:52:54;;;;;;;;;;;;;;;15.29;100.00;100885.31;5036108;28;20351;-74
2023/07/16 03:55:20;;;;;;;;;;;;;;;15.27;100.00;100893.50;5035900;28;19917;-73
2023/07/16 03:57:45;;;;;;;;;;;;;;;15.20;100.00;100886.28;5035962;28;19925;-75
2023/07/16 04:00:10;;;;;;;;;;;;;;;15.04;100.00;100882.63;5035879;28;19917;-74
2023/07/16 04:02:36;;;;;;;;;;;;;;;14.94;100.00;100901.56;5035710;28;19916;-73
2023/07/16 04:05:01;;;;;;;;;;;;;;;14.89;100.00;100897.69;5035616;28;19917;-74
2023/07/16 04:07:26;;;;;;;;;;;;;;;14.86;100.00;100901.53;5035698;28;19932;-73
2023/07/16 04:09:52;;;;;;;;;;;;;;;14.91;100.00;100901.03;5035678;28;19917;-73
2023/07/16 04:12:17;;;;;;;;;;;;;;;14.95;100.00;100907.75;5036132;28;19921;-72
2023/07/16 04:14:42;;;;;;;;;;;;;;;14.95;100.00;100899.69;5035269;28;19917;-73
2023/07/16 04:17:07;;;;;;;;;;;;;;;14.96;100.00;100904.88;5035896;28;19991;-73
2023/07/16 04:19:33;;;;;;;;;;;;;;;14.99;100.00;100901.88;5035247;28;20279;-73
2023/07/16 04:21:59;;;;;;;;;;;;;;;15.03;100.00;100907.72;5036382;28;20342;-73
2023/07/16 04:24:24;;;;;;;;;;;;;;;15.05;100.00;100908.41;5035469;28;20309;-74
2023/07/16 04:26:50;;;;;;;;;;;;;;;15.06;100.00;100904.75;5034416;28;19944;-74
2023/07/16 04:29:15;;;;;;;;;;;;;;;15.12;100.00;100913.94;5035694;28;19913;-74
2023/07/16 04:31:40;;;;;;;;;;;;;;;15.13;100.00;100919.13;5035562;28;19917;-74
2023/07/16 04:34:06;;;;;;;;;;;;;;;15.25;100.00;100918.81;5035334;28;19920;-74
2023/07/16 04:36:31;;;;;;;;;;;;;;;15.38;100.00;100916.44;5035428;28;19968;-73
2023/07/16 04:38:56;;;;;;;;;;;;;;;15.46;100.00;100926.31;5017527;28;20380;-73
2023/07/16 04:41:22;;;;;;;;;;;;;;;15.47;100.00;100926.16;5017668;28;19923;-73
2023/07/16 04:43:47;;;;;;;;;;;;;;;15.48;100.00;100937.72;5035040;28;20388;-73
2023/07/16 04:46:13;;;;;;;;;;;;;;;15.50;100.00;100930.34;5035021;28;19940;-73
2023/07/16 04:48:38;;;;;;;;;;;;;;;15.51;100.00;100937.41;5034577;28;19924;-74
2023/07/16 04:51:03;;;;;;;;;;;;;;;15.51;100.00;100940.09;5035009;28;19979;-73
2023/07/16 04:53:28;;;;;;;;;;;;;;;15.51;100.00;100943.59;5035159;28;20021;-73
2023/07/16 04:55:54;;;;;;;;;;;;;;;15.55;100.00;100937.88;5034504;28;19939;-74
2023/07/16 04:58:19;;;;;;;;;;;;;;;15.57;100.00;100942.09;5034379;28;20004;-73
2023/07/16 05:00:45;;;;;;;;;;;;;;;15.59;100.00;100950.78;5034670;28;19921;-74
2023/07/16 05:03:10;;;;;;;;;;;;;;;15.60;100.00;100936.38;5034843;28;20008;-73
2023/07/16 05:05:35;;;;;;;;;;;;;;;15.64;100.00;100945.72;5034587;28;20384;-73
2023/07/16 05:08:01;;;;;;;;;;;;;;;15.74;100.00;100944.75;5034514;28;20280;-73
2023/07/16 05:10:27;;;;;;;;;;;;;;;15.86;100.00;100949.59;5035062;28;19921;-73
2023/07/16 05:12:52;;;;;;;;;;;;;;;15.97;100.00;100958.28;5034426;28;19920;-72
2023/07/16 05:15:17;;;;;;;;;;;;;;;16.09;100.00;100966.81;5034431;28;20372;-73
2023/07/16 05:17:42;;;;;;;;;;;;;;;16.15;100.00;100969.66;5034614;28;19921;-72
2023/07/16 05:20:09;;;;;;;;;;;;;;;16.13;100.00;100976.19;5034143;28;19924;-73
2023/07/16 05:22:34;;;;;;;;;;;;;;;16.11;100.00;100962.97;5034235;28;19924;-73
2023/07/16 05:25:00;;;;;;;;;;;;;;;16.10;100.00;100957.75;5034321;28;19912;-73
2023/07/16 05:27:25;;;;;;;;;;;;;;;16.07;100.00;100964.31;5034226;28;19956;-73
2023/07/16 05:29:50;;;;;;;;;;;;;;;16.14;100.00;100972.53;5034011;28;20380;-73
2023/07/16 05:32:15;;;;;;;;;;;;;;;16.22;100.00;100967.94;5034632;28;20242;-73
2023/07/16 05:34:41;;;;;;;;;;;;;;;16.22;100.00;100973.31;5034901;28;19935;-76
2023/07/16 05:37:06;;;;;;;;;;;;;;;16.33;100.00;100987.38;5034206;28;20011;-73
2023/07/16 05:39:31;;;;;;;;;;;;;;;16.40;100.00;100980.28;5034111;28;20265;-74
2023/07/16 05:41:57;;;;;;;;;;;;;;;16.47;100.00;100977.78;5034205;28;20265;-74
2023/07/16 05:44:22;;;;;;;;;;;;;;;16.46;100.00;100979.59;5033886;28;20357;-73
2023/07/16 05:46:47;;;;;;;;;;;;;;;16.43;100.00;100985.31;5033957;28;20006;-74
2023/07/16 05:49:13;;;;;;;;;;;;;;;16.35;100.00;100986.19;5033914;28;19920;-74
2023/07/16 05:51:38;;;;;;;;;;;;;;;16.30;100.00;100974.28;5034334;28;19913;-73
2023/07/16 05:54:04;;;;;;;;;;;;;;;16.26;100.00;100994.44;5033902;28;19928;-73
2023/07/16 05:56:29;;;;;;;;;;;;;;;16.26;100.00;100989.06;5033718;28;19913;-73
2023/07/16 05:58:54;;;;;;;;;;;;;;;16.31;100.00;100987.53;5033715;28;19936;-73
2023/07/16 06:01:19;;;;;;;;;;;;;;;16.35;100.00;101004.16;5033749;28;19943;-74
2023/07/16 06:03:45;;;;;;;;;;;;;;;16.45;100.00;100988.69;5033703;28;19951;-73
2023/07/16 06:06:10;;;;;;;;;;;;;;;16.60;100.00;100996.00;5033624;28;19924;-73
2023/07/16 06:08:35;;;;;;;;;;;;;;;16.67;100.00;100989.75;5033426;28;19925;-73
2023/07/16 06:11:00;;;;;;;;;;;;;;;16.73;100.00;100998.94;5033699;28;20377;-74
2023/07/16 06:13:26;;;;;;;;;;;;;;;16.77;100.00;101013.72;5034431;28;19920;-73
2023/07/16 06:15:51;;;;;;;;;;;;;;;16.84;100.00;101009.31;5033648;28;19917;-74
2023/07/16 06:18:16;;;;;;;;;;;;;;;17.00;100.00;101019.16;5034199;28;20008;-73
2023/07/16 06:20:45;;;;;;;;;;;;;;;17.22;100.00;101016.69;5033486;28;19917;-73
2023/07/16 06:23:16;;;;;;;;;;;;;;;17.29;100.00;101012.25;5033723;28;19909;-73
2023/07/16 06:25:44;;;;;;;;;;;;;;;17.23;100.00;101016.50;5034229;28;20014;-72
2023/07/16 06:28:09;;;;;;;;;;;;;;;17.28;100.00;101015.97;5033450;28;19917;-74
2023/07/16 06:30:34;;;;;;;;;;;;;;;17.23;100.00;101018.34;5033600;28;20052;-74
2023/07/16 06:32:59;;;;;;;;;;;;;;;17.38;100.00;101039.94;5033506;28;19917;-75
2023/07/16 06:35:25;;;;;;;;;;;;;;;17.47;100.00;101035.34;5033630;28;20330;-75
2023/07/16 06:37:50;;;;;;;;;;;;;;;17.37;100.00;101035.56;5033419;28;20273;-73
2023/07/16 06:40:15;;;;;;;;;;;;;;;17.40;100.00;101038.72;5033182;28;19917;-75
2023/07/16 06:42:40;;;;;;;;;;;;;;;17.34;100.00;101038.63;5033490;28;19913;-80
2023/07/16 06:45:06;;;;;;;;;;;;;;;17.42;100.00;101034.00;5033132;28;19999;-73
2023/07/16 06:47:32;;;;;;;;;;;;;;;17.56;100.00;101047.69;5015832;28;20392;-73
2023/07/16 06:49:57;;;;;;;;;;;;;;;17.85;100.00;101044.25;5034779;28;19913;-75
2023/07/16 06:52:24;;;;;;;;;;;;;;;17.98;100.00;101041.78;5037333;28;19917;-73
2023/07/16 06:54:49;;;;;;;;;;;;;;;18.09;100.00;101053.16;5037396;28;19917;-73
2023/07/16 06:57:14;;;;;;;;;;;;;;;18.09;100.00;101053.16;5037151;28;19923;-73
2023/07/16 06:59:40;;;;;;;;;;;;;;;18.19;100.00;101063.66;5036946;28;19913;-70
2023/07/16 07:02:06;;;;;;;;;;;;;;;18.27;100.00;101066.25;5019131;28;19971;-76
2023/07/16 07:04:31;;;;;;;;;;;;;;;18.19;100.00;101059.09;5036963;28;19921;-81
2023/07/16 07:06:56;;;;;;;;;;;;;;;18.25;100.00;101062.91;5037186;28;19947;-80
2023/07/16 07:09:21;;;;;;;;;;;;;;;18.27;100.00;101060.88;5037441;28;19928;-84
2023/07/16 07:11:47;;;;;;;;;;;;;;;18.37;100.00;101050.66;5037302;28;19924;-77
2023/07/16 07:14:12;;;;;;;;;;;;;;;18.44;100.00;101067.75;5037445;28;19924;-79
2023/07/16 07:16:39;;;;;;;;;;;;;;;18.61;100.00;101068.41;5037267;28;19920;-85
2023/07/16 07:19:05;;;;;;;;;;;;;;;18.59;100.00;101080.41;5036932;28;19970;-82
2023/07/16 07:21:30;;;;;;;;;;;;;;;18.57;100.00;101085.97;5036608;28;19917;-85
2023/07/16 07:23:55;;;;;;;;;;;;;;;18.46;100.00;101078.34;5037077;28;20350;-86
2023/07/16 07:26:20;;;;;;;;;;;;;;;18.39;100.00;101089.03;5036744;28;19917;-83
2023/07/16 07:28:45;;;;;;;;;;;;;;;18.33;100.00;101103.22;5036637;28;19924;-83
2023/07/16 07:31:11;;;;;;;;;;;;;;;18.26;100.00;101094.22;5036602;28;19917;-82
2023/07/16 07:33:36;;;;;;;;;;;;;;;18.21;100.00;101077.78;5036398;28;19917;-81
2023/07/16 07:36:01;;;;;;;;;;;;;;;18.16;100.00;101083.72;5036498;28;19920;-80
2023/07/16 07:38:26;;;;;;;;;;;;;;;18.20;100.00;101100.31;5036716;28;19917;-80
2023/07/16 07:40:52;;;;;;;;;;;;;;;18.39;100.00;101098.97;5036695;28;19918;-82
2023/07/16 07:43:17;;;;;;;;;;;;;;;18.48;100.00;101095.16;5036773;28;20341;-81
2023/07/16 07:45:43;;;;;;;;;;;;;;;18.73;100.00;101097.59;5036322;28;19923;-80
2023/07/16 07:48:08;;;;;;;;;;;;;;;18.91;100.00;101086.44;5036229;28;20308;-80
2023/07/16 07:50:33;;;;;;;;;;;;;;;18.93;100.00;101104.13;5036164;28;19944;-81
2023/07/16 07:52:59;;;;;;;;;;;;;;;18.89;100.00;101110.06;5019283;28;19924;-82
2023/07/16 07:55:24;;;;;;;;;;;;;;;18.75;100.00;101109.00;5036825;28;19920;-81
2023/07/16 07:57:49;;;;;;;;;;;;;;;18.65;100.00;101104.75;5043566;28;19917;-84
2023/07/16 08:00:14;;;;;;;;;;;;;;;18.57;100.00;101117.47;5036058;28;19921;-84
2023/07/16 08:02:40;;;;;;;;;;;;;;;18.78;100.00;101105.94;5035631;28;19971;-82
2023/07/16 08:05:05;;;;;;;;;;;;;;;19.04;100.00;101110.88;5037461;28;19935;-81
2023/07/16 08:07:30;;;;;;;;;;;;;;;19.34;100.00;101114.34;5037114;28;19956;-81
2023/07/16 08:09:56;;;;;;;;;;;;;;;19.49;100.00;101113.47;5037869;28;19928;-77
2023/07/16 08:12:21;;;;;;;;;;;;;;;19.32;100.00;101127.19;5037381;28;19931;-79
2023/07/16 08:14:47;;;;;;;;;;;;;;;19.19;100.00;101146.75;5036981;28;20396;-80
2023/07/16 08:17:12;;;;;;;;;;;;;;;18.78;100.00;101135.59;5019887;28;19917;-82
2023/07/16 08:19:38;;;;;;;;;;;;;;;18.85;100.00;101132.00;5019941;28;20420;-78
2023/07/16 08:22:04;;;;;;;;;;;;;;;19.14;100.00;101135.69;5038822;28;19948;-80
2023/07/16 08:24:29;;;;;;;;;;;;;;;19.47;100.00;101139.81;5038434;28;19917;-81
2023/07/16 08:26:54;;;;;;;;;;;;;;;19.44;100.00;101127.53;5036953;28;19948;-77
2023/07/16 08:29:19;;;;;;;;;;;;;;;19.29;100.00;101143.75;5037437;28;19917;-78
2023/07/16 08:31:44;;;;;;;;;;;;;;;19.11;100.00;101154.09;5038144;28;20245;-81
2023/07/16 08:34:10;;;;;;;;;;;;;;;19.04;100.00;101140.53;5038294;28;19924;-84
2023/07/16 08:36:36;;;;;;;;;;;;;;;18.94;100.00;101148.06;5037307;28;20246;-81
2023/07/16 08:39:01;;;;;;;;;;;;;;;18.79;100.00;101148.88;5036961;28;19959;-81
2023/07/16 08:41:27;;;;;;;;;;;;;;;18.56;100.00;101167.00;5019339;28;19917;-84
2023/07/16 08:43:53;;;;;;;;;;;;;;;18.43;100.00;101165.75;5036893;28;19964;-80
2023/07/16 08:46:18;;;;;;;;;;;;;;;18.37;100.00;101171.06;5019589;28;20396;-80
2023/07/16 08:48:44;;;;;;;;;;;;;;;18.58;100.00;101170.34;5037298;28;19917;-80
2023/07/16 08:51:11;;;;;;;;;;;;;;;18.77;100.00;101164.41;5036050;28;20452;-81
2023/07/16 08:53:36;;;;;;;;;;;;;;;18.63;100.00;101176.84;5035857;28;19917;-80
2023/07/16 08:56:04;;;;;;;;;;;;;;;18.83;100.00;101174.44;5035900;28;20050;-81
2023/07/16 08:58:30;;;;;;;;;;;;;;;19.09;100.00;101167.75;5036038;28;19917;-82
2023/07/16 09:00:56;;;;;;;;;;;;;;;19.57;100.00;101159.22;5036249;28;19984;-79
2023/07/16 09:03:21;;;;;;;;;;;;;;;20.07;100.00;101179.06;5035861;28;20377;-76
2023/07/16 09:05:47;;;;;;;;;;;;;;;20.32;100.00;101175.97;5036165;28;19913;-76
2023/07/16 09:08:13;;;;;;;;;;;;;;;20.50;100.00;101186.28;5035005;28;20019;-83
2023/07/16 09:10:40;;;;;;;;;;;;;;;20.39;100.00;101165.19;5036378;28;20348;-79
2023/07/16 09:13:05;;;;;;;;;;;;;;;20.14;100.00;101179.13;5035277;28;20032;-80
2023/07/16 09:15:30;;;;;;;;;;;;;;;19.90;100.00;101181.19;5036204;28;20361;-89
2023/07/16 09:17:56;;;;;;;;;;;;;;;19.74;100.00;101174.16;5036519;28;19917;-84
2023/07/16 09:20:24;;;;;;;;;;;;;;;19.47;100.00;101191.91;5035418;28;19959;-86
2023/07/16 09:22:53;;;;;;;;;;;;;;;19.67;100.00;101183.19;5035757;28;20003;-86
2023/07/16 09:25:25;;;;;;;;;;;;;;;19.58;100.00;101205.94;5035903;28;19939;-85
2023/07/16 09:27:50;;;;;;;;;;;;;;;19.17;100.00;101183.03;5018494;28;20353;-86
2023/07/16 09:30:18;;;;;;;;;;;;;;;19.09;100.00;101192.03;5019594;28;19942;-88
2023/07/16 09:32:47;;;;;;;;;;;;;;;19.02;100.00;101201.91;5018903;28;19917;-86
2023/07/16 09:35:16;;;;;;;;;;;;;;;18.94;100.00;101200.13;5036386;28;20353;-86
2023/07/16 09:37:42;;;;;;;;;;;;;;;18.93;100.00;101193.09;5036127;28;19917;-85
2023/07/16 09:40:11;;;;;;;;;;;;;;;18.94;100.00;101197.44;5001775;28;19924;-84
2023/07/16 09:42:40;;;;;;;;;;;;;;;18.93;100.00;101206.56;5035896;28;20008;-86
2023/07/16 09:45:07;;;;;;;;;;;;;;;18.96;100.00;101216.13;5036720;28;19921;-85
2023/07/16 09:47:33;;;;;;;;;;;;;;;19.09;100.00;101212.78;5036734;28;19913;-86
2023/07/16 09:49:59;;;;;;;;;;;;;;;19.19;100.00;101219.56;5002159;28;19917;-84
2023/07/16 09:52:29;;;;;;;;;;;;;;;19.51;100.00;101228.28;5036060;28;19981;-85
2023/07/16 09:54:56;;;;;;;;;;;;;;;20.21;100.00;101214.31;5018972;28;19920;-88
2023/07/16 09:57:23;;;;;;;;;;;;;;;21.43;100.00;101229.28;5036402;28;20253;-89
2023/07/16 09:59:51;;;;;;;;;;;;;;;22.59;100.00;101218.56;5035628;28;20380;-86
2023/07/16 10:02:16;;;;;;;;;;;;;;;22.79;100.00;101223.94;5019339;28;19917;-88
2023/07/16 10:04:42;;;;;;;;;;;;;;;23.55;86.41;101225.19;5019362;28;20276;-88
2023/07/16 10:07:17;;;;;;;;;;;;;;;23.29;81.87;101223.41;5002269;28;20269;-89
2023/07/16 10:09:55;;;;;;;;;;;;;;;22.08;89.10;101233.47;5034911;28;19917;-86
2023/07/16 10:12:21;;;;;;;;;;;;;;;21.02;85.66;101240.09;5034958;28;19987;-85
2023/07/16 10:14:48;;;;;;;;;;;;;;;20.40;88.08;101240.66;5034238;28;20384;-85
2023/07/16 10:17:20;;;;;;;;;;;;;;;20.30;91.54;101250.97;5034764;28;19913;-82
2023/07/16 10:20:04;;;;;;;;;;;;;;;19.94;94.07;101249.16;5034131;28;20016;-86
2023/07/16 10:22:37;;;;;;;;;;;;;;;20.19;90.68;101246.09;5035255;28;19920;-85
2023/07/16 10:25:08;;;;;;;;;;;;;;;20.50;87.59;101234.13;5034161;28;19928;-86
2023/07/16 10:27:34;;;;;;;;;;;;;;;20.57;83.64;101252.06;5034636;28;19913;-86
2023/07/16 10:30:04;;;;;;;;;;;;;;;20.39;88.70;101246.25;5017589;28;19924;-84
2023/07/16 10:32:30;;;;;;;;;;;;;;;20.83;92.69;101239.78;5035559;28;20012;-82
2023/07/16 10:34:56;;;;;;;;;;;;;;;22.19;78.04;101262.69;5016823;28;19960;-85
2023/07/16 10:37:24;;;;;;;;;;;;;;;22.94;68.91;101264.41;5034847;28;19913;-85
2023/07/16 10:39:51;;;;;;;;;;;;;;;22.46;61.83;101273.59;5034582;28;19917;-84
2023/07/16 10:42:17;;;;;;;;;;;;;;;21.88;64.43;101274.91;5034359;28;20357;-83
2023/07/16 10:44:42;;;;;;;;;;;;;;;21.52;62.69;101253.53;5033989;28;19924;-82
2023/07/16 10:47:08;;;;;;;;;;;;;;;21.29;70.58;101279.81;5034077;28;19921;-84
2023/07/16 10:49:34;;;;;;;;;;;;;;;21.80;67.77;101278.63;5034299;28;20322;-81
2023/07/16 10:52:00;;;;;;;;;;;;;;;22.03;66.03;101266.59;5034232;28;19960;-80
2023/07/16 10:54:26;;;;;;;;;;;;;;;21.81;65.12;101280.31;5017082;28;20020;-82
2023/07/16 10:56:51;;;;;;;;;;;;;;;21.53;71.50;101291.22;5033957;28;19944;-80
2023/07/16 10:59:17;;;;;;;;;;;;;;;21.41;75.48;101303.63;5016019;28;19925;-83
2023/07/16 11:01:43;;;;;;;;;;;;;;;21.89;75.80;101294.72;5000572;28;20297;-83
2023/07/16 11:04:08;;;;;;;;;;;;;;;22.27;73.09;101307.72;5033668;28;20404;-82
2023/07/16 11:06:33;;;;;;;;;;;;;;;21.75;73.64;101299.22;5015642;28;19919;-82
2023/07/16 11:09:11;;;;;;;;;;;;;;;21.19;77.69;101306.41;5033999;28;20003;-81
2023/07/16 11:11:36;;;;;;;;;;;;;;;21.28;76.93;101307.09;5033775;28;20024;-84
2023/07/16 11:14:08;;;;;;;;;;;;;;;22.05;69.04;101307.03;5034079;28;20376;-82
2023/07/16 11:16:35;;;;;;;;;;;;;;;23.30;63.95;101298.38;5033683;28;19913;-82
2023/07/16 11:19:01;;;;;;;;;;;;;;;23.81;56.29;101305.75;5034168;28;19913;-85
2023/07/16 11:21:29;;;;;;;;;;;;;;;24.57;57.21;101305.94;5033631;28;19921;-82
2023/07/16 11:23:55;;;;;;;;;;;;;;;24.68;47.57;101307.13;5033631;28;19997;-82
2023/07/16 11:26:20;;;;;;;;;;;;;;;25.02;49.19;101294.91;5033273;28;19913;-82
2023/07/16 11:28:46;;;;;;;;;;;;;;;25.60;45.69;101317.34;5033141;28;19913;-84
2023/07/16 11:31:13;;;;;;;;;;;;;;;25.34;44.92;101302.97;4999379;28;19944;-82
2023/07/16 11:33:41;;;;;;;;;;;;;;;25.33;47.84;101294.00;4999542;28;20003;-81
2023/07/16 11:36:07;;;;;;;;;;;;;;;25.76;45.50;101308.56;5034384;28;20369;-79
2023/07/16 11:38:58;;;;;;;;;;;;;;;26.56;44.94;101309.34;5036998;28;19917;-83
2023/07/16 11:44:38;;;;;;;;;;;;;;;26.56;40.48;101318.34;4994995;28;19916;-80
2023/07/16 11:47:06;;;;;;;;;;;;;;;26.14;39.78;101314.78;4994632;28;19920;-81
2023/07/16 11:49:34;;;;;;;;;;;;;;;25.92;40.92;101319.91;4978540;28;19914;-81
2023/07/16 11:52:00;;;;;;;;;;;;;;;26.05;41.21;101327.94;4995018;28;19918;-81
2023/07/16 11:54:25;;;;;;;;;;;;;;;26.24;41.98;101320.50;4994716;28;20348;-79
2023/07/16 11:56:51;;;;;;;;;;;;;;;26.61;42.10;101334.00;4994877;28;19920;-79
2023/07/16 11:59:20;;;;;;;;;;;;;;;26.61;40.10;101325.00;4979164;28;20342;-80
2023/07/16 12:01:55;;;;;;;;;;;;;;;26.63;41.38;101323.69;4994286;28;19976;-79
2023/07/16 12:04:20;;;;;;;;;;;;;;;26.39;40.45;101326.38;4994425;28;19918;-79
2023/07/16 12:06:49;;;;;;;;;;;;;;;26.71;41.28;101336.22;4994528;28;20365;-77
2023/07/16 12:09:14;;;;;;;;;;;;;;;26.28;40.66;101334.53;4994206;28;19917;-76
2023/07/16 12:11:40;;;;;;;;;;;;;;;26.04;41.25;101335.25;5002761;28;19977;-79
2023/07/16 12:14:12;;;;;;;;;;;;;;;26.68;42.01;101328.50;5036220;28;19972;-79
2023/07/16 12:16:38;;;;;;;;;;;;;;;26.62;40.57;101356.66;5036448;28;19952;-79
2023/07/16 12:19:03;;;;;;;;;;;;;;;26.47;41.44;101336.13;5035680;28;19913;-78
2023/07/16 12:21:29;;;;;;;;;;;;;;;26.78;41.68;101355.19;5035927;28;19913;-81
2023/07/16 12:23:54;;;;;;;;;;;;;;;26.27;42.79;101328.22;5035969;28;19921;-81
2023/07/16 12:26:38;;;;;;;;;;;;;;;26.42;43.53;101343.34;5035827;28;20004;-82